createdAt,value
2022-11-20T00:00:19.022Z,94.25
2022-11-20T00:05:21.887Z,94.21
2022-11-20T00:10:23.543Z,94.81
2022-11-20T00:15:25.800Z,95.05
2022-11-20T00:20:27.460Z,95.24
2022-11-20T00:25:29.117Z,95.17
2022-11-20T00:30:30.776Z,94.71
2022-11-20T00:35:32.461Z,93.66
2022-11-20T00:40:34.120Z,94.44
2022-11-20T00:45:35.772Z,94.06
2022-11-20T00:50:37.506Z,93.44
2022-11-20T00:55:39.249Z,93.95
2022-11-20T01:00:40.986Z,94.77
2022-11-20T01:05:42.709Z,94.85
2022-11-20T01:10:44.373Z,93.90
2022-11-20T01:15:46.020Z,93.14
2022-11-20T01:20:48.211Z,93.48
2022-11-20T01:25:49.865Z,93.78
2022-11-20T01:30:51.780Z,93.68
2022-11-20T01:35:54.017Z,93.13
2022-11-20T01:40:56.804Z,92.63
2022-11-20T01:46:14.184Z,92.43
2022-11-20T01:51:39.130Z,92.51
2022-11-20T01:56:43.880Z,92.84
2022-11-20T02:01:45.657Z,93.35
2022-11-20T02:06:52.985Z,93.50
2022-11-20T02:11:55.923Z,93.61
2022-11-20T02:16:57.635Z,93.48
2022-11-20T02:22:14.932Z,93.27
2022-11-20T02:27:17.997Z,92.59
2022-11-20T02:32:33.762Z,92.96
2022-11-20T02:37:38.246Z,92.37
2022-11-20T02:42:39.927Z,93.56
2022-11-20T02:47:41.581Z,93.30
2022-11-20T02:52:43.449Z,93.14
2022-11-20T02:57:45.143Z,93.59
2022-11-20T03:02:47.176Z,93.60
2022-11-20T03:07:48.834Z,93.42
2022-11-20T03:12:56.297Z,93.06
2022-11-20T03:17:57.994Z,93.33
2022-11-20T03:22:59.731Z,92.87
2022-11-20T03:28:01.410Z,92.55
2022-11-20T03:33:03.159Z,92.80
2022-11-20T03:38:04.818Z,91.87
2022-11-20T03:43:06.484Z,91.76
2022-11-20T03:48:08.151Z,92.08
2022-11-20T03:53:09.807Z,92.45
2022-11-20T03:58:11.611Z,92.33
2022-11-20T04:03:13.285Z,92.00
2022-11-20T04:08:14.971Z,91.45
2022-11-20T04:13:16.627Z,92.11
2022-11-20T04:18:18.300Z,91.88
2022-11-20T04:23:22.386Z,92.31
2022-11-20T04:28:27.508Z,92.37
2022-11-20T04:33:33.887Z,92.88
2022-11-20T04:38:36.052Z,92.24
2022-11-20T04:43:37.732Z,92.54
2022-11-20T04:48:39.404Z,92.41
2022-11-20T04:53:41.443Z,92.05
2022-11-20T04:58:43.246Z,92.25
2022-11-20T05:03:45.777Z,92.75
2022-11-20T05:08:47.507Z,92.02
2022-11-20T05:13:50.912Z,91.87
2022-11-20T05:18:54.324Z,91.96
2022-11-20T05:23:55.976Z,92.14
2022-11-20T05:28:57.843Z,92.10
2022-11-20T05:33:59.543Z,92.43
2022-11-20T05:39:01.901Z,91.53
2022-11-20T05:44:04.207Z,91.88
2022-11-20T05:49:05.884Z,92.37
2022-11-20T05:54:07.578Z,92.05
2022-11-20T05:59:09.311Z,91.60
2022-11-20T06:04:10.996Z,91.68
2022-11-20T06:09:12.692Z,91.71
2022-11-20T06:14:14.347Z,91.41
2022-11-20T06:19:16.280Z,91.33
2022-11-20T06:24:18.755Z,91.16
2022-11-20T06:29:20.798Z,91.11
2022-11-20T06:34:22.655Z,91.25
2022-11-20T06:39:24.550Z,91.12
2022-11-20T06:44:26.861Z,91.86
2022-11-20T06:49:28.554Z,91.97
2022-11-20T06:54:30.213Z,91.07
2022-11-20T06:59:31.870Z,91.15
2022-11-20T07:04:33.535Z,92.05
2022-11-20T07:09:35.213Z,91.22
2022-11-20T07:14:36.902Z,90.41
2022-11-20T07:19:38.583Z,89.85
2022-11-20T07:24:45.700Z,89.17
2022-11-20T07:29:47.727Z,89.81
2022-11-20T07:34:49.454Z,90.37
2022-11-20T07:39:51.111Z,89.91
2022-11-20T07:44:52.759Z,90.24
2022-11-20T07:49:54.497Z,89.89
2022-11-20T07:54:56.180Z,90.04
2022-11-20T07:59:57.873Z,90.74
2022-11-20T08:04:59.533Z,90.89
2022-11-20T08:10:01.189Z,90.11
2022-11-20T08:15:05.239Z,89.96
2022-11-20T08:20:09.579Z,89.83
2022-11-20T08:25:11.257Z,90.48
2022-11-20T08:30:13.584Z,90.38
2022-11-20T08:35:15.261Z,90.85
2022-11-20T08:40:19.567Z,89.53
2022-11-20T08:45:21.635Z,89.87
2022-11-20T08:50:23.382Z,89.01
2022-11-20T08:55:25.165Z,89.68
2022-11-20T09:00:27.140Z,89.90
2022-11-20T09:05:28.883Z,89.33
2022-11-20T09:10:30.572Z,87.60
2022-11-20T09:15:32.716Z,83.88
2022-11-20T09:20:34.562Z,82.14
2022-11-20T09:25:36.247Z,75.58
2022-11-20T09:30:38.026Z,72.89
2022-11-20T09:35:39.792Z,71.43
2022-11-20T09:41:05.508Z,66.04
2022-11-20T09:46:10.303Z,67.22
2022-11-20T09:51:23.152Z,63.07
2022-11-20T09:56:26.458Z,57.83
2022-11-20T10:01:32.772Z,57.00
2022-11-20T10:07:31.499Z,56.52
2022-11-20T10:12:43.015Z,57.87
2022-11-20T10:17:56.726Z,58.13
2022-11-20T10:23:53.875Z,57.43
2022-11-20T10:29:12.774Z,55.02
2022-11-20T10:34:33.198Z,55.73
2022-11-20T10:39:50.565Z,55.30
2022-11-20T10:45:05.817Z,66.49
2022-11-20T10:50:21.886Z,66.84
2022-11-20T10:55:40.148Z,69.86
2022-11-20T11:00:41.995Z,70.04
2022-11-20T11:06:05.024Z,68.29
2022-11-20T11:11:28.978Z,70.37
2022-11-20T11:16:30.656Z,71.11
2022-11-20T11:21:32.372Z,71.69
2022-11-20T11:26:34.087Z,70.37
2022-11-20T11:31:36.371Z,70.68
2022-11-20T11:36:38.623Z,73.33
2022-11-20T11:41:40.979Z,75.40
2022-11-20T11:46:53.747Z,75.75
2022-11-20T11:52:17.947Z,76.26
2022-11-20T11:57:38.096Z,71.76
2022-11-20T12:02:45.579Z,72.17
2022-11-20T12:08:18.059Z,76.25
2022-11-20T12:13:35.046Z,78.85
2022-11-20T12:18:36.735Z,79.56
2022-11-20T12:23:57.685Z,78.90
2022-11-20T12:29:34.432Z,78.56
2022-11-20T12:35:00.292Z,79.31
2022-11-20T12:40:15.920Z,80.31
2022-11-20T12:45:46.857Z,81.66
2022-11-20T12:51:16.432Z,82.68
2022-11-20T12:56:33.484Z,83.66
2022-11-20T13:02:16.132Z,85.10
2022-11-20T13:07:19.028Z,85.33
2022-11-20T13:12:33.889Z,85.34
2022-11-20T13:17:38.217Z,85.04
2022-11-20T13:22:48.423Z,84.27
2022-11-20T13:27:50.473Z,83.88
2022-11-20T13:32:58.450Z,84.34
2022-11-20T13:38:13.554Z,84.10
2022-11-20T13:43:39.799Z,84.90
2022-11-20T13:48:44.596Z,84.65
2022-11-20T13:54:07.309Z,84.44
2022-11-20T13:59:27.927Z,84.96
2022-11-20T14:04:39.225Z,85.30
2022-11-20T14:09:51.220Z,85.57
2022-11-20T14:14:55.480Z,85.59
2022-11-20T14:20:05.448Z,85.78
2022-11-20T14:25:13.161Z,85.59
2022-11-20T14:30:20.578Z,85.97
2022-11-20T14:35:26.585Z,86.00
2022-11-20T14:40:32.398Z,86.17
2022-11-20T14:45:34.337Z,87.03
2022-11-20T14:50:36.528Z,87.66
2022-11-20T14:55:39.400Z,87.15
2022-11-20T15:00:41.144Z,87.88
2022-11-20T15:05:48.600Z,87.38
2022-11-20T15:10:52.184Z,87.12
2022-11-20T15:15:56.576Z,87.37
2022-11-20T15:21:02.233Z,87.99
2022-11-20T15:26:06.794Z,87.95
2022-11-20T15:31:12.887Z,88.60
2022-11-20T15:36:15.189Z,88.41
2022-11-20T15:41:16.927Z,88.20
2022-11-20T15:46:27.457Z,88.29
2022-11-20T15:51:32.876Z,88.20
2022-11-20T15:56:34.572Z,88.36
2022-11-20T16:01:36.708Z,88.64
2022-11-20T16:06:40.142Z,88.01
2022-11-20T16:11:41.803Z,88.26
2022-11-20T16:16:44.435Z,88.79
2022-11-20T16:21:46.295Z,88.52
2022-11-20T16:26:48.004Z,87.02
2022-11-20T16:31:49.756Z,86.37
2022-11-20T16:36:51.414Z,88.13
2022-11-20T16:41:53.075Z,88.91
2022-11-20T16:46:55.204Z,88.54
2022-11-20T16:51:56.864Z,87.05
2022-11-20T16:56:58.523Z,86.35
2022-11-20T17:02:00.206Z,87.25
2022-11-20T17:07:07.861Z,88.49
2022-11-20T17:12:10.189Z,89.45
2022-11-20T17:17:11.928Z,90.53
2022-11-20T17:22:13.583Z,92.17
2022-11-20T17:27:15.272Z,92.98
2022-11-20T17:32:16.959Z,93.34
2022-11-20T17:37:18.627Z,93.36
2022-11-20T17:42:29.851Z,93.87
2022-11-20T17:47:31.659Z,94.95
2022-11-20T17:52:33.309Z,95.50
2022-11-20T17:57:53.092Z,96.06
2022-11-20T18:02:55.569Z,95.16
2022-11-20T18:07:57.286Z,95.92
2022-11-20T18:12:59.010Z,96.53
2022-11-20T18:18:00.659Z,96.32
2022-11-20T18:23:02.344Z,97.19
2022-11-20T18:28:04.033Z,96.58
2022-11-20T18:33:05.802Z,97.38
2022-11-20T18:38:07.491Z,97.49
2022-11-20T18:43:29.621Z,98.09
2022-11-20T18:48:32.191Z,98.50
2022-11-20T18:53:36.702Z,98.99
2022-11-20T18:58:39.355Z,100.00
2022-11-20T19:03:41.027Z,100.00
2022-11-20T19:08:43.282Z,100.00
2022-11-20T19:13:45.558Z,100.00
2022-11-20T19:18:48.466Z,100.00
2022-11-20T19:23:52.266Z,100.00
2022-11-20T19:28:54.360Z,100.00
2022-11-20T19:33:58.091Z,100.00
2022-11-20T19:39:00.829Z,100.00
2022-11-20T19:44:05.009Z,100.00
2022-11-20T19:49:10.272Z,100.00
2022-11-20T19:54:12.069Z,100.00
2022-11-20T19:59:14.582Z,100.00
2022-11-20T20:04:16.297Z,100.00
2022-11-20T20:09:17.946Z,100.00
2022-11-20T20:14:20.090Z,100.00
2022-11-20T20:19:22.203Z,100.00
2022-11-20T20:24:24.147Z,100.00
2022-11-20T20:29:26.106Z,100.00
2022-11-20T20:34:32.103Z,100.00
2022-11-20T20:39:33.826Z,100.00
2022-11-20T20:45:13.855Z,99.51
2022-11-20T20:50:15.743Z,99.08
2022-11-20T20:55:17.535Z,97.49
2022-11-20T21:00:19.468Z,97.91
2022-11-20T21:05:21.112Z,98.13
2022-11-20T21:10:23.979Z,98.60
2022-11-20T21:15:26.005Z,99.10
2022-11-20T21:20:46.303Z,99.79
2022-11-20T21:25:48.009Z,99.38
2022-11-20T21:30:49.728Z,98.96
2022-11-20T21:35:51.391Z,97.21
2022-11-20T21:40:53.037Z,96.38
2022-11-20T21:46:00.941Z,95.22
2022-11-20T21:51:11.250Z,95.13
2022-11-20T21:56:18.968Z,96.53
2022-11-20T22:01:27.087Z,97.33
2022-11-20T22:06:33.963Z,96.88
2022-11-20T22:11:35.651Z,96.56
2022-11-20T22:16:38.106Z,96.03
2022-11-20T22:21:40.597Z,96.26
2022-11-20T22:26:42.548Z,96.70
2022-11-20T22:31:44.625Z,96.91
2022-11-20T22:36:46.332Z,96.80
2022-11-20T22:41:48.004Z,96.87
2022-11-20T22:46:49.659Z,96.91
2022-11-20T22:51:51.348Z,98.10
2022-11-20T22:56:53.050Z,98.61
2022-11-20T23:01:54.703Z,99.23
2022-11-20T23:06:56.577Z,99.30
2022-11-20T23:11:58.236Z,99.28
2022-11-20T23:17:00.016Z,100.00
2022-11-20T23:22:01.705Z,100.00
2022-11-20T23:27:03.408Z,100.00
2022-11-20T23:32:05.098Z,100.00
2022-11-20T23:37:06.802Z,100.00
2022-11-20T23:42:08.503Z,99.91
2022-11-20T23:47:10.160Z,100.00
2022-11-20T23:52:11.881Z,100.00
2022-11-20T23:57:13.552Z,100.00
